createdAt,value
2023-02-12T00:02:25.447Z,96.60
2023-02-12T00:04:52.262Z,96.80
2023-02-12T00:07:18.981Z,96.30
2023-02-12T00:09:45.679Z,95.90
2023-02-12T00:12:12.418Z,96.10
2023-02-12T00:14:39.138Z,97.30
2023-02-12T00:17:05.910Z,97.80
2023-02-12T00:19:32.599Z,97.70
2023-02-12T00:21:59.263Z,97.60
2023-02-12T00:24:27.120Z,97.60
2023-02-12T00:26:53.824Z,97.40
2023-02-12T00:29:20.475Z,97.20
2023-02-12T00:31:47.234Z,96.80
2023-02-12T00:34:14.080Z,96.30
2023-02-12T00:36:40.774Z,96.40
2023-02-12T00:39:07.420Z,97.40
2023-02-12T00:41:34.138Z,98.10
2023-02-12T00:44:00.822Z,98.20
2023-02-12T00:46:27.644Z,98.00
2023-02-12T00:48:54.441Z,97.40
2023-02-12T00:51:21.499Z,97.30
2023-02-12T00:53:48.216Z,97.20
2023-02-12T00:56:15.013Z,98.10
2023-02-12T00:58:41.752Z,98.50
2023-02-12T01:01:08.542Z,97.10
2023-02-12T01:03:35.290Z,98.10
2023-02-12T01:06:02.027Z,98.30
2023-02-12T01:08:28.760Z,97.90
2023-02-12T01:11:00.273Z,97.80
2023-02-12T01:13:27.491Z,97.50
2023-02-12T01:16:12.685Z,98.30
2023-02-12T01:18:39.532Z,98.30
2023-02-12T01:21:13.744Z,98.00
2023-02-12T01:23:40.893Z,98.10
2023-02-12T01:26:10.718Z,97.90
2023-02-12T01:28:38.496Z,97.90
2023-02-12T01:31:12.585Z,97.10
2023-02-12T01:33:39.754Z,97.40
2023-02-12T01:36:06.917Z,97.60
2023-02-12T01:38:33.678Z,97.70
2023-02-12T01:41:04.421Z,97.60
2023-02-12T01:43:31.118Z,97.30
2023-02-12T01:45:59.466Z,97.60
2023-02-12T01:48:27.293Z,98.60
2023-02-12T01:50:54.498Z,97.70
2023-02-12T01:53:22.295Z,97.70
2023-02-12T01:55:55.337Z,98.20
2023-02-12T01:58:23.845Z,98.20
2023-02-12T02:00:50.710Z,98.50
2023-02-12T02:03:17.550Z,98.40
2023-02-12T02:05:56.548Z,97.80
2023-02-12T02:08:23.803Z,97.50
2023-02-12T02:10:50.488Z,97.90
2023-02-12T02:13:35.858Z,98.30
2023-02-12T02:16:08.355Z,98.40
2023-02-12T02:18:41.226Z,98.70
2023-02-12T02:21:20.134Z,98.70
2023-02-12T02:23:52.874Z,98.90
2023-02-12T02:26:28.089Z,98.40
2023-02-12T02:28:54.756Z,97.90
2023-02-12T02:31:26.509Z,97.80
2023-02-12T02:33:56.329Z,97.50
2023-02-12T02:36:35.176Z,97.90
2023-02-12T02:39:14.650Z,97.50
2023-02-12T02:42:01.861Z,96.70
2023-02-12T02:44:31.648Z,97.30
2023-02-12T02:46:59.223Z,97.70
2023-02-12T02:49:28.987Z,98.30
2023-02-12T02:51:59.825Z,98.20
2023-02-12T02:54:30.860Z,98.30
2023-02-12T02:57:00.889Z,98.70
2023-02-12T02:59:31.802Z,98.70
2023-02-12T03:02:04.874Z,98.10
2023-02-12T03:04:33.808Z,97.70
2023-02-12T03:07:09.528Z,97.70
2023-02-12T03:09:36.194Z,98.20
2023-02-12T03:12:05.057Z,98.20
2023-02-12T03:14:33.468Z,98.50
2023-02-12T03:17:04.124Z,99.20
2023-02-12T03:19:37.121Z,98.90
2023-02-12T03:22:09.358Z,98.60
2023-02-12T03:24:38.881Z,97.90
2023-02-12T03:27:11.484Z,98.50
2023-02-12T03:29:38.210Z,98.60
2023-02-12T03:32:24.859Z,98.60
2023-02-12T03:35:03.847Z,98.50
2023-02-12T03:37:35.617Z,98.70
2023-02-12T03:40:05.331Z,99.50
2023-02-12T03:42:38.191Z,99.80
2023-02-12T03:45:10.249Z,99.20
2023-02-12T03:47:36.905Z,98.40
2023-02-12T03:50:03.687Z,98.00
2023-02-12T03:52:30.519Z,98.20
2023-02-12T03:54:57.562Z,98.90
2023-02-12T03:57:31.353Z,98.80
2023-02-12T03:59:59.080Z,98.50
2023-02-12T04:02:25.830Z,98.70
2023-02-12T04:04:52.581Z,99.10
2023-02-12T04:07:19.317Z,99.10
2023-02-12T04:09:45.983Z,99.30
2023-02-12T04:12:24.752Z,99.60
2023-02-12T04:15:03.622Z,99.70
2023-02-12T04:17:36.495Z,99.90
2023-02-12T04:20:22.188Z,99.60
2023-02-12T04:23:03.126Z,99.40
2023-02-12T04:25:35.882Z,99.30
2023-02-12T04:28:06.178Z,99.10
2023-02-12T04:30:40.762Z,99.70
2023-02-12T04:33:10.616Z,99.50
2023-02-12T04:35:59.865Z,99.30
2023-02-12T04:38:34.832Z,99.50
2023-02-12T04:41:05.247Z,99.80
2023-02-12T04:43:36.488Z,99.70
2023-02-12T04:46:07.599Z,99.90
2023-02-12T04:48:35.482Z,99.90
2023-02-12T04:51:02.220Z,99.90
2023-02-12T04:53:28.950Z,99.90
2023-02-12T04:55:56.011Z,99.90
2023-02-12T04:58:22.864Z,99.70
2023-02-12T05:00:49.529Z,99.70
2023-02-12T05:03:16.243Z,99.90
2023-02-12T05:05:42.970Z,98.50
2023-02-12T05:08:09.632Z,98.00
2023-02-12T05:10:36.325Z,98.40
2023-02-12T05:13:02.998Z,99.10
2023-02-12T05:15:29.821Z,99.50
2023-02-12T05:17:56.594Z,99.30
2023-02-12T05:20:23.276Z,99.00
2023-02-12T05:22:53.487Z,98.70
2023-02-12T05:25:20.299Z,98.50
2023-02-12T05:27:47.190Z,98.50
2023-02-12T05:30:14.019Z,99.40
2023-02-12T05:32:40.803Z,99.80
2023-02-12T05:35:07.764Z,99.80
2023-02-12T05:37:36.279Z,99.50
2023-02-12T05:40:06.244Z,99.20
2023-02-12T05:42:32.973Z,99.20
2023-02-12T05:44:59.673Z,99.30
2023-02-12T05:47:26.524Z,98.80
2023-02-12T05:49:53.244Z,98.70
2023-02-12T05:52:19.949Z,98.00
2023-02-12T05:54:49.002Z,99.10
2023-02-12T05:57:15.700Z,99.30
2023-02-12T05:59:42.425Z,99.10
2023-02-12T06:02:09.125Z,99.30
2023-02-12T06:04:35.801Z,98.90
2023-02-12T06:07:02.482Z,98.00
2023-02-12T06:09:29.248Z,98.40
2023-02-12T06:11:55.941Z,98.60
2023-02-12T06:14:22.775Z,98.20
2023-02-12T06:16:50.829Z,98.00
2023-02-12T06:19:18.678Z,98.70
2023-02-12T06:21:45.566Z,99.00
2023-02-12T06:24:13.159Z,99.10
2023-02-12T06:26:40.082Z,98.20
2023-02-12T06:29:06.819Z,97.50
2023-02-12T06:31:35.291Z,97.50
2023-02-12T06:34:03.727Z,98.40
2023-02-12T06:36:30.476Z,98.80
2023-02-12T06:38:57.200Z,98.50
2023-02-12T06:41:24.033Z,98.30
2023-02-12T06:43:51.116Z,98.50
2023-02-12T06:46:18.145Z,99.70
2023-02-12T06:48:44.876Z,99.90
2023-02-12T06:51:12.947Z,99.90
2023-02-12T06:53:39.645Z,99.70
2023-02-12T06:56:11.206Z,99.50
2023-02-12T06:58:38.391Z,99.80
2023-02-12T07:01:13.762Z,99.90
2023-02-12T07:03:41.633Z,99.90
2023-02-12T07:06:08.494Z,99.90
2023-02-12T07:08:35.441Z,99.90
2023-02-12T07:11:02.240Z,99.90
2023-02-12T07:13:28.919Z,99.90
2023-02-12T07:15:55.910Z,99.90
2023-02-12T07:18:22.746Z,99.90
2023-02-12T07:20:49.429Z,99.90
2023-02-12T07:23:16.089Z,99.90
2023-02-12T07:25:42.772Z,99.90
2023-02-12T07:28:09.470Z,99.90
2023-02-12T07:30:36.168Z,99.50
2023-02-12T07:33:04.092Z,99.00
2023-02-12T07:35:31.117Z,98.70
2023-02-12T07:37:58.272Z,98.30
2023-02-12T07:40:24.949Z,98.90
2023-02-12T07:42:55.762Z,99.30
2023-02-12T07:45:22.541Z,99.20
2023-02-12T07:47:50.004Z,99.00
2023-02-12T07:50:16.865Z,98.90
2023-02-12T07:52:43.733Z,98.80
2023-02-12T07:55:10.596Z,98.60
2023-02-12T07:57:37.257Z,98.30
2023-02-12T08:00:04.891Z,98.40
2023-02-12T08:02:32.077Z,98.60
2023-02-12T08:04:59.070Z,98.50
2023-02-12T08:07:26.300Z,98.30
2023-02-12T08:09:53.493Z,97.90
2023-02-12T08:12:20.192Z,96.40
2023-02-12T08:14:51.691Z,95.40
2023-02-12T08:17:18.354Z,94.90
2023-02-12T08:19:45.016Z,93.80
2023-02-12T08:22:12.957Z,93.00
2023-02-12T08:24:39.661Z,92.60
2023-02-12T08:27:06.377Z,91.90
2023-02-12T08:29:33.018Z,92.00
2023-02-12T08:32:00.945Z,91.20
2023-02-12T08:34:32.163Z,90.70
2023-02-12T08:36:58.979Z,88.90
2023-02-12T08:39:27.767Z,90.60
2023-02-12T08:41:55.597Z,86.00
2023-02-12T08:44:22.378Z,85.80
2023-02-12T08:46:50.404Z,87.60
2023-02-12T08:49:19.044Z,86.70
2023-02-12T08:51:48.735Z,85.80
2023-02-12T08:54:16.768Z,83.50
2023-02-12T08:56:45.212Z,83.60
2023-02-12T08:59:12.885Z,83.10
2023-02-12T09:01:41.839Z,84.10
2023-02-12T09:04:11.450Z,81.70
2023-02-12T09:06:38.097Z,80.10
2023-02-12T09:09:04.889Z,75.70
2023-02-12T09:11:31.677Z,76.20
2023-02-12T09:13:59.946Z,72.80
2023-02-12T09:16:27.271Z,73.80
2023-02-12T09:18:54.998Z,73.70
2023-02-12T09:21:22.065Z,75.00
2023-02-12T09:23:49.074Z,73.20
2023-02-12T09:26:17.939Z,74.60
2023-02-12T09:28:44.661Z,76.10
2023-02-12T09:31:15.542Z,76.90
2023-02-12T09:33:42.510Z,78.00
2023-02-12T09:36:10.759Z,78.60
2023-02-12T09:38:37.968Z,77.00
2023-02-12T09:41:04.609Z,77.10
2023-02-12T09:43:43.022Z,80.30
2023-02-12T09:46:30.229Z,80.80
2023-02-12T09:48:56.935Z,80.10
2023-02-12T09:51:24.048Z,77.00
2023-02-12T09:54:11.980Z,75.30
2023-02-12T09:56:39.205Z,74.60
2023-02-12T09:59:07.350Z,72.70
2023-02-12T10:01:35.828Z,73.10
2023-02-12T10:04:04.962Z,73.80
2023-02-12T10:06:45.942Z,75.00
2023-02-12T10:09:16.221Z,74.30
2023-02-12T10:12:01.768Z,74.30
2023-02-12T10:14:43.778Z,73.60
2023-02-12T10:17:10.453Z,74.60
2023-02-12T10:19:37.074Z,75.60
2023-02-12T10:22:03.758Z,76.10
2023-02-12T10:24:35.555Z,76.00
2023-02-12T10:27:13.141Z,76.20
2023-02-12T10:29:42.533Z,79.40
2023-02-12T10:32:27.615Z,77.80
2023-02-12T10:34:55.428Z,78.60
2023-02-12T10:37:32.500Z,77.00
2023-02-12T10:40:05.194Z,77.60
2023-02-12T10:42:39.376Z,75.20
2023-02-12T10:45:06.329Z,75.50
2023-02-12T10:47:32.999Z,76.60
2023-02-12T10:50:00.843Z,77.60
2023-02-12T10:52:45.116Z,75.90
2023-02-12T10:55:28.557Z,75.50
2023-02-12T10:57:55.853Z,75.60
2023-02-12T11:00:24.816Z,75.00
2023-02-12T11:03:02.974Z,73.70
2023-02-12T11:05:30.353Z,72.50
2023-02-12T11:07:59.729Z,70.80
2023-02-12T11:10:32.038Z,69.00
2023-02-12T11:12:59.971Z,69.60
2023-02-12T11:15:27.727Z,70.20
2023-02-12T11:17:59.974Z,71.00
2023-02-12T11:20:28.556Z,70.00
2023-02-12T11:22:55.322Z,70.00
2023-02-12T11:25:42.048Z,70.80
2023-02-12T11:28:19.252Z,69.80
2023-02-12T11:30:50.962Z,70.40
2023-02-12T11:33:22.461Z,71.70
2023-02-12T11:35:54.218Z,71.20
2023-02-12T11:38:24.626Z,71.40
2023-02-12T11:40:54.050Z,73.30
2023-02-12T11:43:21.314Z,73.90
2023-02-12T11:45:50.585Z,73.20
2023-02-12T11:48:19.455Z,72.50
2023-02-12T11:50:50.849Z,72.00
2023-02-12T11:53:23.119Z,72.50
2023-02-12T11:55:54.425Z,71.40
2023-02-12T11:58:22.996Z,71.70
2023-02-12T12:01:12.968Z,71.20
2023-02-12T12:03:57.894Z,71.50
2023-02-12T12:06:24.576Z,71.00
2023-02-12T12:09:02.087Z,71.50
2023-02-12T12:11:49.108Z,70.70
2023-02-12T12:14:26.720Z,70.90
2023-02-12T12:17:21.314Z,69.00
2023-02-12T12:20:04.358Z,69.90
2023-02-12T12:22:46.819Z,66.90
2023-02-12T12:25:20.470Z,66.20
2023-02-12T12:28:06.111Z,66.60
2023-02-12T12:30:51.912Z,66.50
2023-02-12T12:33:26.755Z,69.10
2023-02-12T12:36:03.448Z,67.90
2023-02-12T12:38:33.294Z,68.40
2023-02-12T12:41:00.141Z,68.20
2023-02-12T12:43:29.949Z,69.60
2023-02-12T12:45:56.921Z,69.60
2023-02-12T12:48:23.941Z,70.00
2023-02-12T12:51:02.945Z,70.40
2023-02-12T12:53:29.759Z,71.60
2023-02-12T12:56:07.295Z,69.40
2023-02-12T12:58:52.831Z,66.90
2023-02-12T13:01:25.811Z,67.60
2023-02-12T13:03:53.165Z,68.00
2023-02-12T13:06:46.248Z,66.60
2023-02-12T13:09:25.161Z,67.30
2023-02-12T13:12:06.868Z,67.90
2023-02-12T13:14:40.165Z,66.70
2023-02-12T13:17:14.228Z,67.20
2023-02-12T13:19:59.781Z,65.80
2023-02-12T13:22:35.875Z,64.60
2023-02-12T13:25:02.696Z,63.60
2023-02-12T13:27:35.437Z,65.70
2023-02-12T13:30:07.423Z,64.40
2023-02-12T13:32:40.842Z,65.40
2023-02-12T13:35:07.547Z,65.60
2023-02-12T13:37:45.595Z,66.80
2023-02-12T13:40:17.325Z,67.10
2023-02-12T13:42:47.139Z,66.90
2023-02-12T13:45:18.135Z,66.60
2023-02-12T13:47:50.867Z,67.40
2023-02-12T13:50:37.851Z,68.40
2023-02-12T13:53:27.816Z,68.80
2023-02-12T13:55:54.905Z,70.10
2023-02-12T13:58:40.355Z,70.90
2023-02-12T14:01:14.899Z,70.80
2023-02-12T14:03:41.784Z,71.00
2023-02-12T14:06:08.600Z,70.00
2023-02-12T14:08:38.054Z,69.90
2023-02-12T14:11:07.317Z,71.20
2023-02-12T14:13:36.640Z,70.60
2023-02-12T14:16:22.225Z,71.60
2023-02-12T14:18:48.993Z,68.10
2023-02-12T14:21:17.294Z,67.60
2023-02-12T14:23:46.080Z,68.10
2023-02-12T14:26:20.217Z,68.80
2023-02-12T14:28:46.869Z,68.60
2023-02-12T14:31:23.211Z,69.40
2023-02-12T14:33:51.238Z,68.00
2023-02-12T14:36:20.315Z,68.70
2023-02-12T14:38:48.073Z,68.70
2023-02-12T14:41:34.718Z,68.70
2023-02-12T14:44:30.755Z,68.80
2023-02-12T14:46:57.553Z,68.70
2023-02-12T14:49:54.876Z,68.30
2023-02-12T14:52:25.241Z,68.70
2023-02-12T14:55:02.781Z,69.00
2023-02-12T14:57:34.595Z,69.40
2023-02-12T15:00:05.190Z,69.60
2023-02-12T15:02:34.449Z,69.40
2023-02-12T15:05:06.718Z,69.50
2023-02-12T15:07:37.335Z,69.50
2023-02-12T15:10:16.070Z,70.10
2023-02-12T15:12:46.076Z,70.30
2023-02-12T15:15:25.311Z,71.10
2023-02-12T15:17:59.366Z,71.20
2023-02-12T15:20:37.726Z,72.20
2023-02-12T15:23:24.375Z,72.40
2023-02-12T15:25:51.432Z,72.00
2023-02-12T15:28:21.816Z,72.20
2023-02-12T15:30:48.930Z,71.80
2023-02-12T15:33:27.787Z,72.20
2023-02-12T15:35:54.906Z,73.10
2023-02-12T15:38:43.999Z,73.60
2023-02-12T15:41:23.779Z,74.70
2023-02-12T15:43:50.479Z,76.10
2023-02-12T15:46:18.295Z,78.10
2023-02-12T15:48:45.226Z,79.70
2023-02-12T15:51:34.161Z,79.70
2023-02-12T15:54:03.996Z,80.80
2023-02-12T15:56:32.053Z,82.60
2023-02-12T15:59:01.307Z,83.60
2023-02-12T16:01:29.056Z,83.50
2023-02-12T16:03:57.868Z,84.30
2023-02-12T16:06:25.840Z,85.20
2023-02-12T16:09:02.089Z,86.10
2023-02-12T16:11:29.877Z,86.90
2023-02-12T16:13:58.448Z,88.50
2023-02-12T16:16:31.357Z,90.20
2023-02-12T16:19:04.362Z,90.60
2023-02-12T16:21:33.766Z,90.70
2023-02-12T16:24:00.631Z,90.60
2023-02-12T16:26:27.860Z,90.40
2023-02-12T16:28:56.874Z,91.00
2023-02-12T16:31:26.066Z,90.70
2023-02-12T16:33:54.187Z,91.60
2023-02-12T16:36:21.573Z,91.80
2023-02-12T16:38:49.812Z,92.10
2023-02-12T16:41:27.094Z,92.10
2023-02-12T16:43:59.947Z,91.50
2023-02-12T16:46:31.281Z,92.80
2023-02-12T16:49:00.897Z,93.10
2023-02-12T16:51:29.143Z,93.30
2023-02-12T16:53:57.865Z,93.50
2023-02-12T16:56:26.545Z,93.80
2023-02-12T16:58:57.328Z,93.50
2023-02-12T17:01:24.685Z,93.20
2023-02-12T17:03:51.969Z,93.70
2023-02-12T17:06:19.973Z,93.90
2023-02-12T17:08:46.789Z,94.10
2023-02-12T17:11:15.476Z,94.00
2023-02-12T17:13:42.267Z,94.30
2023-02-12T17:16:11.248Z,94.40
2023-02-12T17:18:39.572Z,94.00
2023-02-12T17:21:32.680Z,94.90
2023-02-12T17:23:59.657Z,94.90
2023-02-12T17:26:26.361Z,95.90
2023-02-12T17:28:53.185Z,96.90
2023-02-12T17:31:20.795Z,97.30
2023-02-12T17:33:47.652Z,97.00
2023-02-12T17:36:14.452Z,96.60
2023-02-12T17:38:41.130Z,96.10
2023-02-12T17:41:11.029Z,96.40
2023-02-12T17:43:37.704Z,96.70
2023-02-12T17:46:11.394Z,97.90
2023-02-12T17:48:38.157Z,98.10
2023-02-12T17:51:04.894Z,98.30
2023-02-12T17:53:31.657Z,98.10
2023-02-12T17:55:58.536Z,98.50
2023-02-12T17:58:25.203Z,98.30
2023-02-12T18:00:52.001Z,98.80
2023-02-12T18:03:18.863Z,98.10
2023-02-12T18:05:45.890Z,98.10
2023-02-12T18:08:12.776Z,98.10
2023-02-12T18:10:43.240Z,98.50
2023-02-12T18:13:09.934Z,98.50
2023-02-12T18:15:36.929Z,99.30
2023-02-12T18:18:03.721Z,98.80
2023-02-12T18:20:30.394Z,99.50
2023-02-12T18:22:57.122Z,99.80
2023-02-12T18:25:23.862Z,99.90
2023-02-12T18:27:50.517Z,99.90
2023-02-12T18:30:17.309Z,99.90
2023-02-12T18:32:43.976Z,99.20
2023-02-12T18:35:10.634Z,99.90
2023-02-12T18:37:37.464Z,99.90
2023-02-12T18:40:04.442Z,99.90
2023-02-12T18:42:33.325Z,99.90
2023-02-12T18:45:00.070Z,99.60
2023-02-12T18:47:26.919Z,98.40
2023-02-12T18:49:53.704Z,99.60
2023-02-12T18:52:20.567Z,99.90
2023-02-12T18:54:47.449Z,99.90
2023-02-12T18:57:14.355Z,99.90
2023-02-12T18:59:41.211Z,99.90
2023-02-12T19:02:08.480Z,99.90
2023-02-12T19:04:35.610Z,99.90
2023-02-12T19:07:02.485Z,99.90
2023-02-12T19:09:29.567Z,99.90
2023-02-12T19:11:57.451Z,99.90
2023-02-12T19:14:25.137Z,99.90
2023-02-12T19:16:52.669Z,99.90
2023-02-12T19:19:23.554Z,99.90
2023-02-12T19:21:50.895Z,99.90
2023-02-12T19:24:17.816Z,99.90
2023-02-12T19:26:46.938Z,99.90
2023-02-12T19:29:13.998Z,99.90
2023-02-12T19:31:43.664Z,99.90
2023-02-12T19:34:16.428Z,99.90
2023-02-12T19:36:43.875Z,99.90
2023-02-12T19:39:13.014Z,99.90
2023-02-12T19:41:43.161Z,99.90
2023-02-12T19:44:11.352Z,99.90
2023-02-12T19:46:40.294Z,99.90
2023-02-12T19:49:07.623Z,99.90
2023-02-12T19:51:34.462Z,99.90
2023-02-12T19:54:01.925Z,99.90
2023-02-12T19:56:28.790Z,99.90
2023-02-12T19:58:56.388Z,99.90
2023-02-12T20:01:23.661Z,99.90
2023-02-12T20:03:50.556Z,99.90
2023-02-12T20:06:24.831Z,99.90
2023-02-12T20:08:51.733Z,99.90
2023-02-12T20:11:19.729Z,99.90
2023-02-12T20:13:46.840Z,99.90
2023-02-12T20:16:17.969Z,99.90
2023-02-12T20:18:45.341Z,99.90
2023-02-12T20:21:16.751Z,99.90
2023-02-12T20:23:43.613Z,99.90
2023-02-12T20:26:11.344Z,99.90
2023-02-12T20:28:38.574Z,99.90
2023-02-12T20:31:12.529Z,99.90
2023-02-12T20:33:39.709Z,99.90
2023-02-12T20:36:07.002Z,99.90
2023-02-12T20:38:33.721Z,99.90
2023-02-12T20:41:04.573Z,99.90
2023-02-12T20:43:32.024Z,99.90
2023-02-12T20:46:09.104Z,99.90
2023-02-12T20:48:36.838Z,99.90
2023-02-12T20:51:04.666Z,99.90
2023-02-12T20:53:32.915Z,99.90
2023-02-12T20:56:04.254Z,99.90
2023-02-12T20:58:31.118Z,99.90
2023-02-12T21:01:05.282Z,99.90
2023-02-12T21:03:32.051Z,99.90
2023-02-12T21:05:59.095Z,99.90
2023-02-12T21:08:25.862Z,99.90
2023-02-12T21:11:03.090Z,99.90
2023-02-12T21:13:29.839Z,99.90
2023-02-12T21:16:06.873Z,99.90
2023-02-12T21:18:33.676Z,99.90
2023-02-12T21:21:04.863Z,99.90
2023-02-12T21:23:32.166Z,99.90
2023-02-12T21:25:59.731Z,99.90
2023-02-12T21:28:26.447Z,99.90
2023-02-12T21:30:53.144Z,99.90
2023-02-12T21:33:19.903Z,99.90
2023-02-12T21:35:46.531Z,99.90
2023-02-12T21:38:13.201Z,99.90
2023-02-12T21:40:39.871Z,99.90
2023-02-12T21:43:06.534Z,99.90
2023-02-12T21:45:33.232Z,99.90
2023-02-12T21:47:59.925Z,99.90
2023-02-12T21:50:26.617Z,99.90
2023-02-12T21:52:53.332Z,99.90
2023-02-12T21:55:20.006Z,99.90
2023-02-12T21:57:47.403Z,99.90
2023-02-12T22:00:14.412Z,99.90
2023-02-12T22:02:41.121Z,99.90
2023-02-12T22:05:07.903Z,99.90
2023-02-12T22:07:34.772Z,99.90
2023-02-12T22:10:01.492Z,99.90
2023-02-12T22:12:32.303Z,99.90
2023-02-12T22:14:59.020Z,99.90
2023-02-12T22:17:25.686Z,99.90
2023-02-12T22:19:52.357Z,99.90
2023-02-12T22:22:19.015Z,99.90
2023-02-12T22:24:45.765Z,99.90
2023-02-12T22:27:12.703Z,99.90
2023-02-12T22:29:39.430Z,99.90
2023-02-12T22:32:06.202Z,99.90
2023-02-12T22:34:32.942Z,99.90
2023-02-12T22:36:59.592Z,99.90
2023-02-12T22:39:26.860Z,99.90
2023-02-12T22:41:53.564Z,99.90
2023-02-12T22:44:21.420Z,99.90
2023-02-12T22:46:48.708Z,99.90
2023-02-12T22:49:16.093Z,99.90
2023-02-12T22:51:42.890Z,99.90
2023-02-12T22:54:13.662Z,99.90
2023-02-12T22:56:40.952Z,99.90
2023-02-12T22:59:07.971Z,99.90
2023-02-12T23:01:34.725Z,99.90
2023-02-12T23:04:01.538Z,99.90
2023-02-12T23:06:29.845Z,99.90
2023-02-12T23:08:58.995Z,99.90
2023-02-12T23:11:26.537Z,99.90
2023-02-12T23:13:53.184Z,99.90
2023-02-12T23:16:20.356Z,99.90
2023-02-12T23:18:47.328Z,99.90
2023-02-12T23:21:14.397Z,99.90
2023-02-12T23:23:41.058Z,99.90
2023-02-12T23:26:07.727Z,99.90
2023-02-12T23:28:34.451Z,99.90
2023-02-12T23:31:01.651Z,99.90
2023-02-12T23:33:28.621Z,99.90
2023-02-12T23:35:55.429Z,99.90
2023-02-12T23:38:22.474Z,99.90
2023-02-12T23:40:49.162Z,99.90
2023-02-12T23:43:15.929Z,99.90
2023-02-12T23:45:46.369Z,99.90
2023-02-12T23:48:13.441Z,99.90
2023-02-12T23:50:40.558Z,99.90
2023-02-12T23:53:07.419Z,99.90
2023-02-12T23:55:36.033Z,99.90
2023-02-12T23:58:03.189Z,99.90
